sensor_id;sensor_type;location;lat;lon;timestamp;P1;durP1;ratioP1;P2;durP2;ratioP2
9773;SDS011;4926;42.670;23.316;2023-08-07T00:01:36;1.52;;;1.42;;
9773;SDS011;4926;42.670;23.316;2023-08-07T00:04:03;1.70;;;1.60;;
9773;SDS011;4926;42.670;23.316;2023-08-07T00:06:30;2.08;;;1.88;;
9773;SDS011;4926;42.670;23.316;2023-08-07T00:08:56;2.20;;;2.00;;
9773;SDS011;4926;42.670;23.316;2023-08-07T00:11:23;5.20;;;1.80;;
9773;SDS011;4926;42.670;23.316;2023-08-07T00:13:50;2.35;;;2.00;;
9773;SDS011;4926;42.670;23.316;2023-08-07T00:16:18;2.38;;;2.17;;
9773;SDS011;4926;42.670;23.316;2023-08-07T00:18:47;2.00;;;1.90;;
9773;SDS011;4926;42.670;23.316;2023-08-07T00:21:14;2.35;;;2.15;;
9773;SDS011;4926;42.670;23.316;2023-08-07T00:23:41;1.90;;;1.80;;
9773;SDS011;4926;42.670;23.316;2023-08-07T00:26:25;2.20;;;2.00;;
9773;SDS011;4926;42.670;23.316;2023-08-07T00:28:52;4.15;;;1.88;;
9773;SDS011;4926;42.670;23.316;2023-08-07T00:31:23;2.40;;;2.20;;
9773;SDS011;4926;42.670;23.316;2023-08-07T00:33:56;2.33;;;2.13;;
9773;SDS011;4926;42.670;23.316;2023-08-07T00:36:23;2.35;;;2.10;;
9773;SDS011;4926;42.670;23.316;2023-08-07T00:38:50;2.20;;;2.00;;
9773;SDS011;4926;42.670;23.316;2023-08-07T00:41:17;2.10;;;2.00;;
9773;SDS011;4926;42.670;23.316;2023-08-07T00:43:46;2.30;;;2.10;;
9773;SDS011;4926;42.670;23.316;2023-08-07T00:46:14;4.03;;;3.72;;
9773;SDS011;4926;42.670;23.316;2023-08-07T00:48:42;4.78;;;4.28;;
9773;SDS011;4926;42.670;23.316;2023-08-07T00:51:09;3.78;;;3.47;;
9773;SDS011;4926;42.670;23.316;2023-08-07T00:53:38;4.25;;;3.95;;
9773;SDS011;4926;42.670;23.316;2023-08-07T00:56:05;3.80;;;3.47;;
9773;SDS011;4926;42.670;23.316;2023-08-07T00:58:32;3.45;;;3.15;;
9773;SDS011;4926;42.670;23.316;2023-08-07T01:01:00;3.55;;;2.90;;
9773;SDS011;4926;42.670;23.316;2023-08-07T01:03:27;2.97;;;2.50;;
9773;SDS011;4926;42.670;23.316;2023-08-07T01:05:55;2.75;;;2.55;;
9773;SDS011;4926;42.670;23.316;2023-08-07T01:08:22;2.80;;;2.60;;
9773;SDS011;4926;42.670;23.316;2023-08-07T01:11:07;2.58;;;2.38;;
9773;SDS011;4926;42.670;23.316;2023-08-07T01:13:47;2.53;;;2.33;;
9773;SDS011;4926;42.670;23.316;2023-08-07T01:16:25;2.20;;;2.10;;
9773;SDS011;4926;42.670;23.316;2023-08-07T01:18:56;2.50;;;2.30;;
9773;SDS011;4926;42.670;23.316;2023-08-07T01:21:28;5.47;;;2.47;;
9773;SDS011;4926;42.670;23.316;2023-08-07T01:23:56;3.13;;;2.92;;
9773;SDS011;4926;42.670;23.316;2023-08-07T01:26:23;2.92;;;2.65;;
9773;SDS011;4926;42.670;23.316;2023-08-07T01:28:50;4.15;;;2.95;;
9773;SDS011;4926;42.670;23.316;2023-08-07T01:31:24;3.13;;;2.83;;
9773;SDS011;4926;42.670;23.316;2023-08-07T01:33:54;3.85;;;3.47;;
9773;SDS011;4926;42.670;23.316;2023-08-07T01:36:25;3.88;;;2.85;;
9773;SDS011;4926;42.670;23.316;2023-08-07T01:38:53;5.55;;;3.20;;
9773;SDS011;4926;42.670;23.316;2023-08-07T01:41:23;4.43;;;3.47;;
9773;SDS011;4926;42.670;23.316;2023-08-07T01:43:51;3.90;;;3.30;;
9773;SDS011;4926;42.670;23.316;2023-08-07T01:46:18;3.53;;;3.13;;
9773;SDS011;4926;42.670;23.316;2023-08-07T01:48:45;3.50;;;3.20;;
9773;SDS011;4926;42.670;23.316;2023-08-07T01:51:14;3.35;;;2.90;;
9773;SDS011;4926;42.670;23.316;2023-08-07T01:53:41;3.90;;;3.20;;
9773;SDS011;4926;42.670;23.316;2023-08-07T01:56:09;3.30;;;3.00;;
9773;SDS011;4926;42.670;23.316;2023-08-07T01:58:36;5.40;;;3.00;;
9773;SDS011;4926;42.670;23.316;2023-08-07T02:01:02;3.53;;;3.22;;
9773;SDS011;4926;42.670;23.316;2023-08-07T02:03:29;3.63;;;3.33;;
9773;SDS011;4926;42.670;23.316;2023-08-07T02:05:56;3.67;;;3.38;;
9773;SDS011;4926;42.670;23.316;2023-08-07T02:08:22;4.35;;;3.30;;
9773;SDS011;4926;42.670;23.316;2023-08-07T02:10:49;3.80;;;3.40;;
9773;SDS011;4926;42.670;23.316;2023-08-07T02:13:20;3.72;;;3.40;;
9773;SDS011;4926;42.670;23.316;2023-08-07T02:15:48;3.45;;;3.15;;
9773;SDS011;4926;42.670;23.316;2023-08-07T02:18:15;3.20;;;2.90;;
9773;SDS011;4926;42.670;23.316;2023-08-07T02:20:41;3.75;;;3.25;;
9773;SDS011;4926;42.670;23.316;2023-08-07T02:23:08;3.25;;;3.05;;
9773;SDS011;4926;42.670;23.316;2023-08-07T02:25:35;3.03;;;2.83;;
9773;SDS011;4926;42.670;23.316;2023-08-07T02:28:07;3.22;;;3.00;;
9773;SDS011;4926;42.670;23.316;2023-08-07T02:30:35;3.08;;;2.88;;
9773;SDS011;4926;42.670;23.316;2023-08-07T02:33:22;3.30;;;3.00;;
9773;SDS011;4926;42.670;23.316;2023-08-07T02:35:52;3.40;;;3.10;;
9773;SDS011;4926;42.670;23.316;2023-08-07T02:38:18;2.92;;;2.72;;
9773;SDS011;4926;42.670;23.316;2023-08-07T02:40:45;2.88;;;2.67;;
9773;SDS011;4926;42.670;23.316;2023-08-07T02:43:12;3.58;;;2.80;;
9773;SDS011;4926;42.670;23.316;2023-08-07T02:45:41;3.15;;;2.85;;
9773;SDS011;4926;42.670;23.316;2023-08-07T02:48:08;3.15;;;2.88;;
9773;SDS011;4926;42.670;23.316;2023-08-07T02:50:35;3.75;;;2.80;;
9773;SDS011;4926;42.670;23.316;2023-08-07T02:53:04;4.15;;;2.60;;
9773;SDS011;4926;42.670;23.316;2023-08-07T02:55:30;3.33;;;3.05;;
9773;SDS011;4926;42.670;23.316;2023-08-07T02:57:57;2.85;;;2.65;;
9773;SDS011;4926;42.670;23.316;2023-08-07T03:00:24;2.97;;;2.67;;
9773;SDS011;4926;42.670;23.316;2023-08-07T03:02:52;3.20;;;3.00;;
9773;SDS011;4926;42.670;23.316;2023-08-07T03:05:19;4.00;;;3.20;;
9773;SDS011;4926;42.670;23.316;2023-08-07T03:07:45;4.75;;;3.30;;
9773;SDS011;4926;42.670;23.316;2023-08-07T03:10:12;4.10;;;3.72;;
9773;SDS011;4926;42.670;23.316;2023-08-07T03:12:39;3.60;;;3.30;;
9773;SDS011;4926;42.670;23.316;2023-08-07T03:15:06;3.40;;;3.20;;
9773;SDS011;4926;42.670;23.316;2023-08-07T03:17:33;3.88;;;3.58;;
9773;SDS011;4926;42.670;23.316;2023-08-07T03:20:01;3.80;;;3.50;;
9773;SDS011;4926;42.670;23.316;2023-08-07T03:22:29;4.00;;;3.30;;
9773;SDS011;4926;42.670;23.316;2023-08-07T03:24:55;4.80;;;3.90;;
9773;SDS011;4926;42.670;23.316;2023-08-07T03:27:22;3.88;;;3.58;;
9773;SDS011;4926;42.670;23.316;2023-08-07T03:29:51;3.92;;;3.63;;
9773;SDS011;4926;42.670;23.316;2023-08-07T03:32:18;6.00;;;4.00;;
9773;SDS011;4926;42.670;23.316;2023-08-07T03:34:44;3.75;;;3.45;;
9773;SDS011;4926;42.670;23.316;2023-08-07T03:37:13;3.80;;;3.50;;
9773;SDS011;4926;42.670;23.316;2023-08-07T03:39:39;3.47;;;3.17;;
9773;SDS011;4926;42.670;23.316;2023-08-07T03:42:08;3.88;;;3.50;;
9773;SDS011;4926;42.670;23.316;2023-08-07T03:44:38;4.20;;;3.55;;
9773;SDS011;4926;42.670;23.316;2023-08-07T03:47:07;3.72;;;3.42;;
9773;SDS011;4926;42.670;23.316;2023-08-07T03:49:37;3.65;;;3.35;;
9773;SDS011;4926;42.670;23.316;2023-08-07T03:52:04;3.90;;;3.60;;
9773;SDS011;4926;42.670;23.316;2023-08-07T03:54:32;3.80;;;3.50;;
9773;SDS011;4926;42.670;23.316;2023-08-07T03:56:59;3.88;;;3.58;;
9773;SDS011;4926;42.670;23.316;2023-08-07T03:59:25;3.85;;;3.50;;
9773;SDS011;4926;42.670;23.316;2023-08-07T04:01:52;3.55;;;3.25;;
9773;SDS011;4926;42.670;23.316;2023-08-07T04:04:19;3.47;;;3.20;;
9773;SDS011;4926;42.670;23.316;2023-08-07T04:06:45;6.55;;;3.40;;
9773;SDS011;4926;42.670;23.316;2023-08-07T04:09:12;4.15;;;3.28;;
9773;SDS011;4926;42.670;23.316;2023-08-07T04:11:42;3.58;;;3.17;;
9773;SDS011;4926;42.670;23.316;2023-08-07T04:14:12;4.15;;;3.47;;
9773;SDS011;4926;42.670;23.316;2023-08-07T04:16:39;3.65;;;3.33;;
9773;SDS011;4926;42.670;23.316;2023-08-07T04:19:05;3.50;;;3.20;;
9773;SDS011;4926;42.670;23.316;2023-08-07T04:21:32;3.78;;;3.17;;
9773;SDS011;4926;42.670;23.316;2023-08-07T04:23:59;3.45;;;3.15;;
9773;SDS011;4926;42.670;23.316;2023-08-07T04:26:26;3.33;;;3.08;;
9773;SDS011;4926;42.670;23.316;2023-08-07T04:28:54;3.35;;;3.10;;
9773;SDS011;4926;42.670;23.316;2023-08-07T04:31:23;3.78;;;3.47;;
9773;SDS011;4926;42.670;23.316;2023-08-07T04:33:55;3.50;;;3.20;;
9773;SDS011;4926;42.670;23.316;2023-08-07T04:36:22;3.63;;;3.15;;
9773;SDS011;4926;42.670;23.316;2023-08-07T04:38:49;3.80;;;3.40;;
9773;SDS011;4926;42.670;23.316;2023-08-07T04:41:18;3.70;;;3.40;;
9773;SDS011;4926;42.670;23.316;2023-08-07T04:43:47;4.85;;;3.25;;
9773;SDS011;4926;42.670;23.316;2023-08-07T04:46:16;3.75;;;3.45;;
9773;SDS011;4926;42.670;23.316;2023-08-07T04:48:42;4.35;;;3.63;;
9773;SDS011;4926;42.670;23.316;2023-08-07T04:51:09;3.63;;;3.33;;
9773;SDS011;4926;42.670;23.316;2023-08-07T04:53:38;3.60;;;3.30;;
9773;SDS011;4926;42.670;23.316;2023-08-07T04:56:05;3.45;;;3.10;;
9773;SDS011;4926;42.670;23.316;2023-08-07T04:58:32;3.63;;;3.30;;
9773;SDS011;4926;42.670;23.316;2023-08-07T05:00:59;3.95;;;3.08;;
9773;SDS011;4926;42.670;23.316;2023-08-07T05:03:27;3.88;;;3.20;;
9773;SDS011;4926;42.670;23.316;2023-08-07T05:05:58;4.30;;;3.25;;
9773;SDS011;4926;42.670;23.316;2023-08-07T05:08:31;3.47;;;3.28;;
9773;SDS011;4926;42.670;23.316;2023-08-07T05:10:57;3.60;;;3.30;;
9773;SDS011;4926;42.670;23.316;2023-08-07T05:13:24;3.83;;;3.28;;
9773;SDS011;4926;42.670;23.316;2023-08-07T05:15:51;3.40;;;3.20;;
9773;SDS011;4926;42.670;23.316;2023-08-07T05:18:20;3.40;;;3.10;;
9773;SDS011;4926;42.670;23.316;2023-08-07T05:20:49;3.22;;;3.00;;
9773;SDS011;4926;42.670;23.316;2023-08-07T05:23:16;3.85;;;3.28;;
9773;SDS011;4926;42.670;23.316;2023-08-07T05:25:44;4.20;;;3.42;;
9773;SDS011;4926;42.670;23.316;2023-08-07T05:28:11;4.35;;;3.05;;
9773;SDS011;4926;42.670;23.316;2023-08-07T05:30:39;3.78;;;3.35;;
9773;SDS011;4926;42.670;23.316;2023-08-07T05:33:06;3.60;;;3.30;;
9773;SDS011;4926;42.670;23.316;2023-08-07T05:35:33;3.72;;;3.42;;
9773;SDS011;4926;42.670;23.316;2023-08-07T05:38:01;2.92;;;2.72;;
9773;SDS011;4926;42.670;23.316;2023-08-07T05:40:28;2.95;;;2.75;;
9773;SDS011;4926;42.670;23.316;2023-08-07T05:42:55;3.70;;;3.33;;
9773;SDS011;4926;42.670;23.316;2023-08-07T05:45:25;4.57;;;3.25;;
9773;SDS011;4926;42.670;23.316;2023-08-07T05:47:52;4.40;;;3.00;;
9773;SDS011;4926;42.670;23.316;2023-08-07T05:50:18;3.40;;;3.10;;
9773;SDS011;4926;42.670;23.316;2023-08-07T05:52:45;4.45;;;2.80;;
9773;SDS011;4926;42.670;23.316;2023-08-07T05:55:13;7.88;;;3.03;;
9773;SDS011;4926;42.670;23.316;2023-08-07T05:57:43;3.25;;;2.90;;
9773;SDS011;4926;42.670;23.316;2023-08-07T06:00:15;3.50;;;3.20;;
9773;SDS011;4926;42.670;23.316;2023-08-07T06:02:44;4.63;;;3.28;;
9773;SDS011;4926;42.670;23.316;2023-08-07T06:05:14;5.63;;;3.10;;
9773;SDS011;4926;42.670;23.316;2023-08-07T06:07:42;3.67;;;2.97;;
9773;SDS011;4926;42.670;23.316;2023-08-07T06:10:09;3.63;;;3.10;;
9773;SDS011;4926;42.670;23.316;2023-08-07T06:12:37;3.28;;;2.97;;
9773;SDS011;4926;42.670;23.316;2023-08-07T06:15:04;4.00;;;3.17;;
9773;SDS011;4926;42.670;23.316;2023-08-07T06:17:31;3.00;;;2.80;;
9773;SDS011;4926;42.670;23.316;2023-08-07T06:19:58;3.10;;;2.90;;
9773;SDS011;4926;42.670;23.316;2023-08-07T06:22:25;3.78;;;3.17;;
9773;SDS011;4926;42.670;23.316;2023-08-07T06:24:52;3.40;;;3.10;;
9773;SDS011;4926;42.670;23.316;2023-08-07T06:27:20;3.20;;;2.90;;
9773;SDS011;4926;42.670;23.316;2023-08-07T06:29:50;6.25;;;3.10;;
9773;SDS011;4926;42.670;23.316;2023-08-07T06:32:17;3.90;;;2.72;;
9773;SDS011;4926;42.670;23.316;2023-08-07T06:34:49;2.58;;;2.38;;
9773;SDS011;4926;42.670;23.316;2023-08-07T06:37:16;3.17;;;2.88;;
9773;SDS011;4926;42.670;23.316;2023-08-07T06:39:42;2.80;;;2.00;;
9773;SDS011;4926;42.670;23.316;2023-08-07T06:42:09;4.75;;;2.50;;
9773;SDS011;4926;42.670;23.316;2023-08-07T06:44:36;5.07;;;2.10;;
9773;SDS011;4926;42.670;23.316;2023-08-07T06:47:04;6.55;;;2.67;;
9773;SDS011;4926;42.670;23.316;2023-08-07T06:49:31;2.10;;;1.95;;
9773;SDS011;4926;42.670;23.316;2023-08-07T06:51:58;2.50;;;2.30;;
9773;SDS011;4926;42.670;23.316;2023-08-07T06:54:25;2.28;;;2.08;;
9773;SDS011;4926;42.670;23.316;2023-08-07T06:56:52;2.15;;;1.90;;
9773;SDS011;4926;42.670;23.316;2023-08-07T06:59:19;3.47;;;1.73;;
9773;SDS011;4926;42.670;23.316;2023-08-07T07:01:46;1.98;;;1.55;;
9773;SDS011;4926;42.670;23.316;2023-08-07T07:04:14;1.85;;;1.40;;
9773;SDS011;4926;42.670;23.316;2023-08-07T07:06:41;3.05;;;1.40;;
9773;SDS011;4926;42.670;23.316;2023-08-07T07:09:08;1.58;;;1.40;;
9773;SDS011;4926;42.670;23.316;2023-08-07T07:11:34;2.83;;;1.58;;
9773;SDS011;4926;42.670;23.316;2023-08-07T07:14:01;2.05;;;1.70;;
9773;SDS011;4926;42.670;23.316;2023-08-07T07:16:31;1.50;;;1.40;;
9773;SDS011;4926;42.670;23.316;2023-08-07T07:18:59;2.67;;;1.80;;
9773;SDS011;4926;42.670;23.316;2023-08-07T07:21:27;1.73;;;1.63;;
9773;SDS011;4926;42.670;23.316;2023-08-07T07:23:54;2.00;;;1.75;;
9773;SDS011;4926;42.670;23.316;2023-08-07T07:26:21;2.08;;;1.88;;
9773;SDS011;4926;42.670;23.316;2023-08-07T07:28:47;2.17;;;1.80;;
9773;SDS011;4926;42.670;23.316;2023-08-07T07:31:16;1.70;;;1.60;;
9773;SDS011;4926;42.670;23.316;2023-08-07T07:33:50;1.60;;;1.50;;
9773;SDS011;4926;42.670;23.316;2023-08-07T07:36:17;2.20;;;1.77;;
9773;SDS011;4926;42.670;23.316;2023-08-07T07:38:46;3.38;;;1.73;;
9773;SDS011;4926;42.670;23.316;2023-08-07T07:41:13;2.90;;;2.00;;
9773;SDS011;4926;42.670;23.316;2023-08-07T07:43:43;3.42;;;1.88;;
9773;SDS011;4926;42.670;23.316;2023-08-07T07:46:10;3.38;;;2.20;;
9773;SDS011;4926;42.670;23.316;2023-08-07T07:48:37;3.17;;;1.80;;
9773;SDS011;4926;42.670;23.316;2023-08-07T07:51:03;2.20;;;2.00;;
9773;SDS011;4926;42.670;23.316;2023-08-07T07:53:30;3.03;;;2.20;;
9773;SDS011;4926;42.670;23.316;2023-08-07T07:55:59;1.85;;;1.70;;
9773;SDS011;4926;42.670;23.316;2023-08-07T07:58:25;4.45;;;1.77;;
9773;SDS011;4926;42.670;23.316;2023-08-07T08:00:52;2.00;;;1.83;;
9773;SDS011;4926;42.670;23.316;2023-08-07T08:03:19;1.92;;;1.83;;
9773;SDS011;4926;42.670;23.316;2023-08-07T08:05:49;2.17;;;1.55;;
9773;SDS011;4926;42.670;23.316;2023-08-07T08:08:16;2.40;;;1.88;;
9773;SDS011;4926;42.670;23.316;2023-08-07T08:10:46;2.05;;;1.70;;
9773;SDS011;4926;42.670;23.316;2023-08-07T08:13:14;2.17;;;1.90;;
9773;SDS011;4926;42.670;23.316;2023-08-07T08:15:41;1.60;;;1.50;;
9773;SDS011;4926;42.670;23.316;2023-08-07T08:18:08;1.67;;;1.52;;
9773;SDS011;4926;42.670;23.316;2023-08-07T08:20:36;2.13;;;1.88;;
9773;SDS011;4926;42.670;23.316;2023-08-07T08:23:03;2.60;;;2.33;;
9773;SDS011;4926;42.670;23.316;2023-08-07T08:25:30;2.03;;;1.80;;
9773;SDS011;4926;42.670;23.316;2023-08-07T08:27:58;3.03;;;1.80;;
9773;SDS011;4926;42.670;23.316;2023-08-07T08:30:35;2.25;;;1.98;;
9773;SDS011;4926;42.670;23.316;2023-08-07T08:33:01;2.97;;;1.80;;
9773;SDS011;4926;42.670;23.316;2023-08-07T08:35:37;3.00;;;2.80;;
9773;SDS011;4926;42.670;23.316;2023-08-07T08:38:04;2.60;;;2.08;;
9773;SDS011;4926;42.670;23.316;2023-08-07T08:40:31;2.15;;;1.83;;
9773;SDS011;4926;42.670;23.316;2023-08-07T08:42:58;4.38;;;1.65;;
9773;SDS011;4926;42.670;23.316;2023-08-07T08:45:26;1.80;;;1.70;;
9773;SDS011;4926;42.670;23.316;2023-08-07T08:48:01;1.45;;;1.35;;
9773;SDS011;4926;42.670;23.316;2023-08-07T08:50:28;3.22;;;1.70;;
9773;SDS011;4926;42.670;23.316;2023-08-07T08:52:55;1.88;;;1.58;;
9773;SDS011;4926;42.670;23.316;2023-08-07T08:55:23;1.65;;;1.55;;
9773;SDS011;4926;42.670;23.316;2023-08-07T08:57:52;1.60;;;1.50;;
9773;SDS011;4926;42.670;23.316;2023-08-07T09:00:20;1.58;;;1.48;;
9773;SDS011;4926;42.670;23.316;2023-08-07T09:02:48;3.35;;;1.60;;
9773;SDS011;4926;42.670;23.316;2023-08-07T09:05:17;2.78;;;1.70;;
9773;SDS011;4926;42.670;23.316;2023-08-07T09:07:44;2.15;;;2.00;;
9773;SDS011;4926;42.670;23.316;2023-08-07T09:10:12;6.82;;;1.92;;
9773;SDS011;4926;42.670;23.316;2023-08-07T09:12:39;2.65;;;1.60;;
9773;SDS011;4926;42.670;23.316;2023-08-07T09:15:08;1.65;;;1.55;;
9773;SDS011;4926;42.670;23.316;2023-08-07T09:17:39;2.30;;;1.60;;
9773;SDS011;4926;42.670;23.316;2023-08-07T09:20:07;2.63;;;1.67;;
9773;SDS011;4926;42.670;23.316;2023-08-07T09:22:38;2.65;;;1.50;;
9773;SDS011;4926;42.670;23.316;2023-08-07T09:25:09;1.73;;;1.63;;
9773;SDS011;4926;42.670;23.316;2023-08-07T09:27:39;1.70;;;1.50;;
9773;SDS011;4926;42.670;23.316;2023-08-07T09:30:08;2.58;;;1.60;;
9773;SDS011;4926;42.670;23.316;2023-08-07T09:32:36;2.33;;;1.95;;
9773;SDS011;4926;42.670;23.316;2023-08-07T09:35:04;3.55;;;1.80;;
9773;SDS011;4926;42.670;23.316;2023-08-07T09:37:33;2.20;;;1.80;;
9773;SDS011;4926;42.670;23.316;2023-08-07T09:40:05;2.65;;;1.90;;
9773;SDS011;4926;42.670;23.316;2023-08-07T09:42:36;1.60;;;1.50;;
9773;SDS011;4926;42.670;23.316;2023-08-07T09:45:03;2.72;;;1.85;;
9773;SDS011;4926;42.670;23.316;2023-08-07T09:47:57;2.50;;;1.70;;
9773;SDS011;4926;42.670;23.316;2023-08-07T09:50:24;2.28;;;1.85;;
9773;SDS011;4926;42.670;23.316;2023-08-07T09:52:52;1.85;;;1.60;;
9773;SDS011;4926;42.670;23.316;2023-08-07T09:55:20;2.53;;;1.67;;
9773;SDS011;4926;42.670;23.316;2023-08-07T09:57:47;2.17;;;1.98;;
9773;SDS011;4926;42.670;23.316;2023-08-07T10:00:17;1.63;;;1.52;;
9773;SDS011;4926;42.670;23.316;2023-08-07T10:02:46;5.53;;;4.32;;
9773;SDS011;4926;42.670;23.316;2023-08-07T10:05:14;2.67;;;1.80;;
9773;SDS011;4926;42.670;23.316;2023-08-07T10:07:42;1.70;;;1.45;;
9773;SDS011;4926;42.670;23.316;2023-08-07T10:10:09;2.45;;;2.08;;
9773;SDS011;4926;42.670;23.316;2023-08-07T10:12:38;3.33;;;1.80;;
9773;SDS011;4926;42.670;23.316;2023-08-07T10:15:05;1.60;;;1.50;;
9773;SDS011;4926;42.670;23.316;2023-08-07T10:17:33;2.55;;;1.90;;
9773;SDS011;4926;42.670;23.316;2023-08-07T10:20:00;1.70;;;1.60;;
9773;SDS011;4926;42.670;23.316;2023-08-07T10:22:28;1.35;;;1.25;;
9773;SDS011;4926;42.670;23.316;2023-08-07T10:24:57;2.25;;;1.60;;
9773;SDS011;4926;42.670;23.316;2023-08-07T10:27:28;3.95;;;1.80;;
9773;SDS011;4926;42.670;23.316;2023-08-07T10:29:58;1.80;;;1.70;;
9773;SDS011;4926;42.670;23.316;2023-08-07T10:32:27;1.67;;;1.58;;
9773;SDS011;4926;42.670;23.316;2023-08-07T10:34:55;1.73;;;1.60;;
9773;SDS011;4926;42.670;23.316;2023-08-07T10:37:41;2.00;;;1.63;;
9773;SDS011;4926;42.670;23.316;2023-08-07T10:40:09;1.92;;;1.73;;
9773;SDS011;4926;42.670;23.316;2023-08-07T10:42:55;2.17;;;1.92;;
9773;SDS011;4926;42.670;23.316;2023-08-07T10:45:24;2.58;;;2.10;;
9773;SDS011;4926;42.670;23.316;2023-08-07T10:47:57;3.53;;;2.05;;
9773;SDS011;4926;42.670;23.316;2023-08-07T10:50:34;2.38;;;2.15;;
9773;SDS011;4926;42.670;23.316;2023-08-07T10:53:02;1.80;;;1.67;;
9773;SDS011;4926;42.670;23.316;2023-08-07T10:55:42;2.63;;;1.92;;
9773;SDS011;4926;42.670;23.316;2023-08-07T10:58:20;1.73;;;1.63;;
9773;SDS011;4926;42.670;23.316;2023-08-07T11:00:50;2.72;;;1.60;;
9773;SDS011;4926;42.670;23.316;2023-08-07T11:03:20;4.95;;;1.85;;
9773;SDS011;4926;42.670;23.316;2023-08-07T11:05:52;1.77;;;1.67;;
9773;SDS011;4926;42.670;23.316;2023-08-07T11:08:21;1.63;;;1.52;;
9773;SDS011;4926;42.670;23.316;2023-08-07T11:10:54;1.73;;;1.63;;
9773;SDS011;4926;42.670;23.316;2023-08-07T11:13:22;2.78;;;1.60;;
9773;SDS011;4926;42.670;23.316;2023-08-07T11:15:50;1.60;;;1.42;;
9773;SDS011;4926;42.670;23.316;2023-08-07T11:18:17;1.88;;;1.60;;
9773;SDS011;4926;42.670;23.316;2023-08-07T11:20:44;2.78;;;2.10;;
9773;SDS011;4926;42.670;23.316;2023-08-07T11:23:11;4.65;;;2.63;;
9773;SDS011;4926;42.670;23.316;2023-08-07T11:25:38;2.38;;;2.10;;
9773;SDS011;4926;42.670;23.316;2023-08-07T11:28:04;2.83;;;2.00;;
9773;SDS011;4926;42.670;23.316;2023-08-07T11:30:33;2.47;;;2.00;;
9773;SDS011;4926;42.670;23.316;2023-08-07T11:33:04;3.40;;;1.67;;
9773;SDS011;4926;42.670;23.316;2023-08-07T11:35:32;2.42;;;1.70;;
9773;SDS011;4926;42.670;23.316;2023-08-07T11:37:59;2.17;;;1.83;;
9773;SDS011;4926;42.670;23.316;2023-08-07T11:40:25;2.08;;;1.50;;
9773;SDS011;4926;42.670;23.316;2023-08-07T11:42:52;1.80;;;1.70;;
9773;SDS011;4926;42.670;23.316;2023-08-07T11:45:20;1.90;;;1.80;;
9773;SDS011;4926;42.670;23.316;2023-08-07T11:47:47;2.95;;;1.70;;
9773;SDS011;4926;42.670;23.316;2023-08-07T11:50:15;1.80;;;1.70;;
9773;SDS011;4926;42.670;23.316;2023-08-07T11:52:42;2.50;;;1.70;;
9773;SDS011;4926;42.670;23.316;2023-08-07T11:55:09;3.80;;;1.85;;
9773;SDS011;4926;42.670;23.316;2023-08-07T11:57:38;2.72;;;1.77;;
9773;SDS011;4926;42.670;23.316;2023-08-07T12:00:09;2.85;;;2.03;;
9773;SDS011;4926;42.670;23.316;2023-08-07T12:02:40;3.20;;;1.90;;
9773;SDS011;4926;42.670;23.316;2023-08-07T12:05:08;1.85;;;1.60;;
9773;SDS011;4926;42.670;23.316;2023-08-07T12:07:37;1.65;;;1.55;;
9773;SDS011;4926;42.670;23.316;2023-08-07T12:10:04;1.95;;;1.80;;
9773;SDS011;4926;42.670;23.316;2023-08-07T12:12:33;1.92;;;1.63;;
9773;SDS011;4926;42.670;23.316;2023-08-07T12:15:02;2.55;;;1.75;;
9773;SDS011;4926;42.670;23.316;2023-08-07T12:17:31;2.83;;;1.70;;
9773;SDS011;4926;42.670;23.316;2023-08-07T12:19:58;3.45;;;2.00;;
9773;SDS011;4926;42.670;23.316;2023-08-07T12:22:27;4.00;;;2.47;;
9773;SDS011;4926;42.670;23.316;2023-08-07T12:24:55;2.00;;;1.90;;
9773;SDS011;4926;42.670;23.316;2023-08-07T12:27:22;3.80;;;2.40;;
9773;SDS011;4926;42.670;23.316;2023-08-07T12:29:48;2.95;;;2.75;;
9773;SDS011;4926;42.670;23.316;2023-08-07T12:32:15;1.90;;;1.63;;
9773;SDS011;4926;42.670;23.316;2023-08-07T12:34:42;3.95;;;2.28;;
9773;SDS011;4926;42.670;23.316;2023-08-07T12:37:08;2.80;;;2.60;;
9773;SDS011;4926;42.670;23.316;2023-08-07T12:39:35;4.55;;;2.20;;
9773;SDS011;4926;42.670;23.316;2023-08-07T12:42:03;2.47;;;2.20;;
9773;SDS011;4926;42.670;23.316;2023-08-07T12:44:33;1.95;;;1.75;;
9773;SDS011;4926;42.670;23.316;2023-08-07T12:47:00;4.13;;;1.80;;
9773;SDS011;4926;42.670;23.316;2023-08-07T12:49:27;2.92;;;2.15;;
9773;SDS011;4926;42.670;23.316;2023-08-07T12:51:53;2.65;;;1.90;;
9773;SDS011;4926;42.670;23.316;2023-08-07T12:54:23;2.15;;;2.05;;
9773;SDS011;4926;42.670;23.316;2023-08-07T12:56:49;2.92;;;2.08;;
9773;SDS011;4926;42.670;23.316;2023-08-07T12:59:18;3.15;;;1.80;;
9773;SDS011;4926;42.670;23.316;2023-08-07T13:01:45;2.17;;;1.98;;
9773;SDS011;4926;42.670;23.316;2023-08-07T13:04:12;2.47;;;1.90;;
9773;SDS011;4926;42.670;23.316;2023-08-07T13:06:44;3.75;;;2.00;;
9773;SDS011;4926;42.670;23.316;2023-08-07T13:09:10;2.67;;;1.90;;
9773;SDS011;4926;42.670;23.316;2023-08-07T13:11:37;2.08;;;1.83;;
9773;SDS011;4926;42.670;23.316;2023-08-07T13:14:10;4.85;;;2.00;;
9773;SDS011;4926;42.670;23.316;2023-08-07T13:16:38;2.90;;;1.98;;
9773;SDS011;4926;42.670;23.316;2023-08-07T13:19:08;3.63;;;2.00;;
9773;SDS011;4926;42.670;23.316;2023-08-07T13:21:40;2.65;;;1.90;;
9773;SDS011;4926;42.670;23.316;2023-08-07T13:24:07;3.83;;;2.15;;
9773;SDS011;4926;42.670;23.316;2023-08-07T13:26:35;1.77;;;1.67;;
9773;SDS011;4926;42.670;23.316;2023-08-07T13:29:03;4.72;;;1.90;;
9773;SDS011;4926;42.670;23.316;2023-08-07T13:31:30;3.10;;;2.03;;
9773;SDS011;4926;42.670;23.316;2023-08-07T13:33:58;2.63;;;1.90;;
9773;SDS011;4926;42.670;23.316;2023-08-07T13:36:25;2.70;;;2.15;;
9773;SDS011;4926;42.670;23.316;2023-08-07T13:38:51;2.35;;;1.90;;
9773;SDS011;4926;42.670;23.316;2023-08-07T13:41:18;3.25;;;1.90;;
9773;SDS011;4926;42.670;23.316;2023-08-07T13:43:45;3.00;;;1.45;;
9773;SDS011;4926;42.670;23.316;2023-08-07T13:46:13;4.22;;;2.90;;
9773;SDS011;4926;42.670;23.316;2023-08-07T13:48:39;2.05;;;1.88;;
9773;SDS011;4926;42.670;23.316;2023-08-07T13:51:07;2.13;;;1.92;;
9773;SDS011;4926;42.670;23.316;2023-08-07T13:53:34;2.45;;;2.00;;
9773;SDS011;4926;42.670;23.316;2023-08-07T13:56:01;1.98;;;1.83;;
9773;SDS011;4926;42.670;23.316;2023-08-07T13:58:29;2.00;;;1.80;;
9773;SDS011;4926;42.670;23.316;2023-08-07T14:00:56;3.30;;;3.00;;
9773;SDS011;4926;42.670;23.316;2023-08-07T14:03:24;2.17;;;1.98;;
9773;SDS011;4926;42.670;23.316;2023-08-07T14:05:51;2.17;;;2.00;;
9773;SDS011;4926;42.670;23.316;2023-08-07T14:08:19;5.80;;;3.10;;
9773;SDS011;4926;42.670;23.316;2023-08-07T14:10:46;3.10;;;1.77;;
9773;SDS011;4926;42.670;23.316;2023-08-07T14:13:12;3.50;;;2.13;;
9773;SDS011;4926;42.670;23.316;2023-08-07T14:15:39;2.85;;;2.20;;
9773;SDS011;4926;42.670;23.316;2023-08-07T14:18:06;5.55;;;2.38;;
9773;SDS011;4926;42.670;23.316;2023-08-07T14:20:34;2.33;;;1.98;;
9773;SDS011;4926;42.670;23.316;2023-08-07T14:23:03;3.72;;;2.70;;
9773;SDS011;4926;42.670;23.316;2023-08-07T14:25:38;2.67;;;2.30;;
9773;SDS011;4926;42.670;23.316;2023-08-07T14:28:04;2.10;;;1.90;;
9773;SDS011;4926;42.670;23.316;2023-08-07T14:30:32;2.53;;;2.22;;
9773;SDS011;4926;42.670;23.316;2023-08-07T14:33:04;2.30;;;2.00;;
9773;SDS011;4926;42.670;23.316;2023-08-07T14:35:30;2.13;;;1.75;;
9773;SDS011;4926;42.670;23.316;2023-08-07T14:37:57;1.95;;;1.80;;
9773;SDS011;4926;42.670;23.316;2023-08-07T14:40:24;3.67;;;2.20;;
9773;SDS011;4926;42.670;23.316;2023-08-07T14:42:52;3.20;;;2.20;;
9773;SDS011;4926;42.670;23.316;2023-08-07T14:45:19;2.65;;;2.28;;
9773;SDS011;4926;42.670;23.316;2023-08-07T14:47:50;4.72;;;2.22;;
9773;SDS011;4926;42.670;23.316;2023-08-07T14:50:17;2.53;;;2.30;;
9773;SDS011;4926;42.670;23.316;2023-08-07T14:52:43;3.33;;;2.50;;
9773;SDS011;4926;42.670;23.316;2023-08-07T14:55:10;2.90;;;2.45;;
9773;SDS011;4926;42.670;23.316;2023-08-07T14:57:37;6.35;;;2.20;;
9773;SDS011;4926;42.670;23.316;2023-08-07T15:00:06;3.30;;;2.00;;
9773;SDS011;4926;42.670;23.316;2023-08-07T15:02:34;6.10;;;2.10;;
9773;SDS011;4926;42.670;23.316;2023-08-07T15:05:06;3.50;;;2.15;;
9773;SDS011;4926;42.670;23.316;2023-08-07T15:07:33;1.95;;;1.70;;